Time;durP1;ratioP1;P1;durP2;ratioP2;P2;SDS_P1;SDS_P2;PMS_P1;PMS_P2;Temp;Humidity;BMP_temperature;BMP_pressure;BME280_temperature;BME280_humidity;BME280_pressure;Samples;Min_cycle;Max_cycle;Signal;HPM_P1;HPM_P2
2023/03/05 00:00:09;;;;;;;0.40;0.40;;;;;;;17.59;39.42;101788.19;5080555;28;20043;-46
2023/03/05 00:02:35;;;;;;;0.40;0.40;;;;;;;17.58;39.43;101784.59;5116365;28;20523;-46
2023/03/05 00:05:00;;;;;;;0.30;0.30;;;;;;;17.59;39.43;101779.94;5116851;28;20047;-46
2023/03/05 00:07:26;;;;;;;0.30;0.30;;;;;;;17.59;39.64;101780.75;5116365;28;20055;-48
2023/03/05 00:09:52;;;;;;;0.40;0.40;;;;;;;17.58;39.49;101781.84;5117081;28;20408;-46
2023/03/05 00:12:18;;;;;;;0.30;0.30;;;;;;;17.58;39.31;101776.34;5116842;28;20054;-45
2023/03/05 00:14:43;;;;;;;0.30;0.30;;;;;;;17.59;39.55;101768.91;5098461;28;20176;-48
2023/03/05 00:17:09;;;;;;;0.40;0.40;;;;;;;17.58;39.20;101778.25;5102183;27;20050;-46
2023/03/05 00:19:35;;;;;;;0.30;0.30;;;;;;;17.57;39.34;101769.13;5095810;28;20049;-47
2023/03/05 00:22:00;;;;;;;0.40;0.40;;;;;;;17.58;39.36;101770.84;5095934;28;20048;-47
2023/03/05 00:24:26;;;;;;;0.30;0.30;;;;;;;17.58;39.34;101767.25;5096238;28;20557;-45
2023/03/05 00:26:52;;;;;;;0.32;0.32;;;;;;;17.59;39.42;101768.91;5096110;28;20445;-46
2023/03/05 00:29:20;;;;;;;0.32;0.32;;;;;;;17.58;39.40;101767.25;5096018;28;20052;-46
2023/03/05 00:31:46;;;;;;;0.30;0.30;;;;;;;17.57;39.75;101763.63;5074114;28;20540;-47
2023/03/05 00:34:15;;;;;;;0.30;0.30;;;;;;;17.59;39.39;101766.16;5112765;28;20058;-46
2023/03/05 00:36:43;;;;;;;0.30;0.30;;;;;;;17.58;39.42;101762.56;5077558;28;20065;-46
2023/03/05 00:39:10;;;;;;;0.40;0.40;;;;;;;17.58;39.23;101754.31;5096554;28;20058;-46
2023/03/05 00:41:35;;;;;;;0.30;0.30;;;;;;;17.58;39.50;101761.75;5114600;28;20514;-46
2023/03/05 00:44:01;;;;;;;0.40;0.40;;;;;;;17.58;39.43;101751.56;5115430;28;20035;-46
2023/03/05 00:46:27;;;;;;;0.30;0.30;;;;;;;17.58;39.37;101757.06;5096295;28;20051;-45
2023/03/05 00:48:54;;;;;;;0.35;0.35;;;;;;;17.59;39.36;101757.91;5060794;28;20051;-46
2023/03/05 00:51:20;;;;;;;0.30;0.30;;;;;;;17.57;39.48;101747.09;5077068;28;20047;-45
2023/03/05 00:53:46;;;;;;;0.40;0.40;;;;;;;17.58;39.29;101750.72;5095458;28;20070;-46
2023/03/05 00:56:12;;;;;;;0.40;0.40;;;;;;;17.59;39.45;101749.63;5077275;28;20807;-48
2023/03/05 00:58:38;;;;;;;0.30;0.30;;;;;;;17.57;39.45;101744.34;5060180;28;20919;-47
2023/03/05 01:01:04;;;;;;;0.40;0.40;;;;;;;17.58;39.39;101751.56;5077036;28;20454;-46
2023/03/05 01:03:31;;;;;;;0.30;0.30;;;;;;;17.57;39.38;101749.84;5076288;28;20058;-47
2023/03/05 01:05:57;;;;;;;0.40;0.40;;;;;;;17.57;39.39;101747.09;5094138;28;20051;-45
2023/03/05 01:08:23;;;;;;;0.30;0.30;;;;;;;17.57;39.23;101741.59;5097399;28;20047;-46
2023/03/05 01:10:49;;;;;;;0.30;0.30;;;;;;;17.57;39.33;101747.09;5096349;28;20058;-46
2023/03/05 01:13:15;;;;;;;0.40;0.40;;;;;;;17.58;39.43;101747.97;5097252;28;20445;-49
2023/03/05 01:15:40;;;;;;;0.40;0.40;;;;;;;17.58;39.56;101736.94;5115522;28;20699;-46
2023/03/05 01:18:06;;;;;;;0.40;0.40;;;;;;;17.58;39.34;101732.28;5115106;28;20051;-47
2023/03/05 01:20:32;;;;;;;0.45;0.45;;;;;;;17.57;39.30;101733.34;5115384;28;20506;-46
2023/03/05 01:22:58;;;;;;;0.30;0.30;;;;;;;17.56;39.52;101727.00;5096889;28;20086;-46
2023/03/05 01:25:23;;;;;;;0.40;0.40;;;;;;;17.58;39.57;101725.94;5115355;28;20043;-47
2023/03/05 01:27:49;;;;;;;0.40;0.40;;;;;;;17.58;39.36;101718.50;5115811;28;20492;-47
2023/03/05 01:30:15;;;;;;;0.40;0.40;;;;;;;17.58;39.40;101717.66;5115422;28;20059;-46
2023/03/05 01:32:41;;;;;;;0.30;0.30;;;;;;;17.56;39.56;101710.47;5115147;28;20504;-45
2023/03/05 01:35:07;;;;;;;0.30;0.30;;;;;;;17.58;39.23;101710.25;5114924;28;20043;-48
2023/03/05 01:37:33;;;;;;;0.30;0.30;;;;;;;17.56;39.25;101707.72;5096357;28;20487;-46
2023/03/05 01:39:59;;;;;;;0.40;0.40;;;;;;;17.58;39.45;101709.41;5080932;28;20553;-48
2023/03/05 01:42:24;;;;;;;0.30;0.30;;;;;;;17.58;39.39;101706.66;5114898;28;20451;-46
2023/03/05 01:45:10;;;;;;;0.40;0.40;;;;;;;17.56;39.39;101699.44;5114598;28;20051;-46
2023/03/05 01:47:36;;;;;;;0.38;0.38;;;;;;;17.57;39.43;101700.28;5097116;28;20409;-48
2023/03/05 01:50:04;;;;;;;0.40;0.40;;;;;;;17.58;39.25;101699.22;5097023;28;20051;-46
2023/03/05 01:52:32;;;;;;;0.40;0.40;;;;;;;17.57;39.42;101697.53;5115264;28;20544;-47
2023/03/05 01:55:00;;;;;;;0.40;0.40;;;;;;;17.58;39.47;101690.97;5096628;28;20082;-46
2023/03/05 01:57:34;;;;;;;0.40;0.40;;;;;;;17.57;39.37;101686.50;5096353;28;20047;-46
2023/03/05 02:00:05;;;;;;;0.40;0.40;;;;;;;17.56;39.32;101688.44;5126571;27;20043;-47
2023/03/05 02:02:31;;;;;;;0.40;0.40;;;;;;;17.58;39.43;101684.63;5116709;27;20107;-47
2023/03/05 02:05:02;;;;;;;0.40;0.40;;;;;;;17.57;39.30;101681.00;5126724;27;20051;-46
2023/03/05 02:07:29;;;;;;;0.40;0.40;;;;;;;17.56;39.40;101680.19;5096010;28;20123;-46
2023/03/05 02:09:54;;;;;;;0.30;0.30;;;;;;;17.56;39.57;101680.19;5115476;28;20054;-48
2023/03/05 02:12:20;;;;;;;0.40;0.40;;;;;;;17.57;39.42;101675.50;5114860;28;20043;-48
2023/03/05 02:14:47;;;;;;;0.30;0.30;;;;;;;17.57;39.56;101670.00;5114659;28;20050;-46
2023/03/05 02:17:13;;;;;;;0.30;0.30;;;;;;;17.58;39.31;101665.34;5096275;28;20068;-45
2023/03/05 02:19:50;;;;;;;0.30;0.30;;;;;;;17.56;39.56;101658.13;5096702;28;20130;-47
2023/03/05 02:22:17;;;;;;;0.30;0.30;;;;;;;17.56;39.36;101662.81;5096081;28;20043;-46
2023/03/05 02:24:43;;;;;;;0.30;0.30;;;;;;;17.57;39.31;101656.22;5095801;28;20047;-47
2023/03/05 02:27:09;;;;;;;0.30;0.30;;;;;;;17.56;39.44;101658.13;5114234;28;20474;-46
2023/03/05 02:29:38;;;;;;;0.40;0.40;;;;;;;17.56;39.35;101652.63;5114483;28;20892;-46
2023/03/05 02:32:04;;;;;;;0.30;0.30;;;;;;;17.56;39.46;101647.13;5096368;28;20071;-47
2023/03/05 02:34:29;;;;;;;0.30;0.30;;;;;;;17.57;39.43;101645.19;5114119;28;20457;-45
2023/03/05 02:36:55;;;;;;;0.40;0.40;;;;;;;17.56;39.25;101641.63;5114123;28;20073;-48
2023/03/05 02:39:21;;;;;;;0.40;0.40;;;;;;;17.57;39.56;101636.94;5114483;28;20046;-48
2023/03/05 02:41:46;;;;;;;0.30;0.30;;;;;;;17.56;39.44;101638.88;5114308;28;20487;-49
2023/03/05 02:44:12;;;;;;;0.40;0.40;;;;;;;17.58;39.48;101643.31;5111704;28;20055;-46
2023/03/05 02:46:38;;;;;;;0.30;0.30;;;;;;;17.56;39.36;101635.28;5093378;28;20312;-46
2023/03/05 02:49:03;;;;;;;0.30;0.30;;;;;;;17.56;39.52;101633.34;5093672;28;20418;-46
2023/03/05 02:51:29;;;;;;;0.30;0.30;;;;;;;17.56;39.46;101633.34;5094124;28;20059;-46
2023/03/05 02:53:55;;;;;;;0.40;0.40;;;;;;;17.56;39.53;101630.59;5093733;28;20535;-47
2023/03/05 02:56:20;;;;;;;0.40;0.40;;;;;;;17.56;39.40;101633.34;5092952;28;20092;-46
2023/03/05 02:58:46;;;;;;;0.30;0.30;;;;;;;17.56;39.21;101625.09;5102776;27;20043;-46
2023/03/05 03:01:12;;;;;;;0.40;0.40;;;;;;;17.56;39.51;101618.75;5114379;28;20047;-46
2023/03/05 03:03:37;;;;;;;0.30;0.30;;;;;;;17.57;39.50;101623.16;5114159;28;20073;-49
2023/03/05 03:06:03;;;;;;;0.38;0.38;;;;;;;17.56;39.48;101622.34;5113770;28;20058;-47
2023/03/05 03:08:29;;;;;;;0.30;0.30;;;;;;;17.58;39.59;101621.28;5113399;28;20491;-45
2023/03/05 03:10:55;;;;;;;0.30;0.30;;;;;;;17.57;39.34;101617.66;5114240;28;20414;-46
2023/03/05 03:13:23;;;;;;;0.30;0.30;;;;;;;17.58;39.40;101610.25;5114299;28;20054;-46
2023/03/05 03:15:49;;;;;;;0.30;0.30;;;;;;;17.56;39.46;101611.31;5095395;28;20423;-47
2023/03/05 03:18:18;;;;;;;0.40;0.40;;;;;;;17.56;39.42;101604.97;5113815;28;20252;-46
2023/03/05 03:20:44;;;;;;;0.40;0.40;;;;;;;17.56;39.31;101603.06;5113115;28;20139;-49
2023/03/05 03:23:09;;;;;;;0.30;0.30;;;;;;;17.56;39.58;101600.31;5114033;28;20473;-46
2023/03/05 03:25:35;;;;;;;0.30;0.30;;;;;;;17.56;39.29;101603.06;5113866;28;20039;-46
2023/03/05 03:28:01;;;;;;;0.30;0.30;;;;;;;17.56;39.44;101592.03;5113492;28;20510;-48
2023/03/05 03:30:27;;;;;;;0.30;0.30;;;;;;;17.56;39.50;101591.22;5113997;28;20071;-50
2023/03/05 03:32:52;;;;;;;0.30;0.30;;;;;;;17.56;39.60;101592.03;5113991;27;20047;-45
2023/03/05 03:35:18;;;;;;;0.30;0.30;;;;;;;17.56;39.28;101589.28;5116729;28;20053;-46
2023/03/05 03:37:44;;;;;;;0.30;0.30;;;;;;;17.56;39.38;101586.53;5116481;28;20423;-48
2023/03/05 03:40:10;;;;;;;0.30;0.30;;;;;;;17.55;39.25;101579.38;5117335;28;20099;-46
2023/03/05 03:42:36;;;;;;;0.30;0.30;;;;;;;17.56;39.43;101575.50;5098576;28;20047;-46
2023/03/05 03:45:03;;;;;;;0.30;0.30;;;;;;;17.56;39.48;101574.69;5116976;28;20448;-47
2023/03/05 03:47:29;;;;;;;0.40;0.40;;;;;;;17.56;39.26;101571.94;5116689;28;20076;-46
2023/03/05 03:49:55;;;;;;;0.30;0.30;;;;;;;17.56;39.22;101575.50;5098545;28;20047;-47
2023/03/05 03:52:21;;;;;;;0.32;0.32;;;;;;;17.56;39.42;101570.00;5098602;28;20097;-46
2023/03/05 03:54:49;;;;;;;0.30;0.30;;;;;;;17.56;39.42;101564.50;5098789;28;20047;-46
2023/03/05 03:57:14;;;;;;;0.40;0.40;;;;;;;17.56;39.53;101564.50;5116585;28;20058;-45
2023/03/05 03:59:40;;;;;;;0.40;0.40;;;;;;;17.55;39.58;101557.34;5117218;28;20043;-47
2023/03/05 04:02:06;;;;;;;0.40;0.40;;;;;;;17.55;39.50;101551.81;5097710;28;20051;-48
2023/03/05 04:04:32;;;;;;;0.30;0.30;;;;;;;17.56;39.34;101556.25;5117092;28;20229;-46
2023/03/05 04:06:57;;;;;;;0.32;0.32;;;;;;;17.55;39.42;101545.50;5116950;28;20047;-47
2023/03/05 04:09:23;;;;;;;0.40;0.40;;;;;;;17.56;39.30;101544.41;5116496;28;20441;-46
2023/03/05 04:11:49;;;;;;;0.30;0.30;;;;;;;17.56;39.35;101547.97;5116292;28;20058;-48
2023/03/05 04:14:14;;;;;;;0.40;0.40;;;;;;;17.56;39.49;101547.16;5116783;28;20068;-47
2023/03/05 04:16:40;;;;;;;0.30;0.30;;;;;;;17.56;39.52;101544.41;5116876;28;20131;-48
2023/03/05 04:19:06;;;;;;;0.40;0.40;;;;;;;17.55;39.46;101540.81;5116655;28;20043;-46
2023/03/05 04:21:31;;;;;;;0.40;0.40;;;;;;;17.58;39.45;101544.16;5116289;28;20435;-47
2023/03/05 04:23:57;;;;;;;0.35;0.35;;;;;;;17.56;39.53;101536.97;5115936;28;20123;-46
2023/03/05 04:26:23;;;;;;;0.30;0.30;;;;;;;17.56;39.43;101530.63;5096201;28;20052;-46
2023/03/05 04:28:48;;;;;;;0.30;0.30;;;;;;;17.56;39.39;101531.44;5095625;28;20051;-49
2023/03/05 04:31:14;;;;;;;0.30;0.30;;;;;;;17.56;39.48;101530.63;5095715;28;20066;-47
2023/03/05 04:33:40;;;;;;;0.30;0.30;;;;;;;17.56;39.47;101522.34;5077282;28;20047;-49
2023/03/05 04:36:06;;;;;;;0.32;0.32;;;;;;;17.55;39.23;101507.75;5095813;28;20431;-45
2023/03/05 04:38:31;;;;;;;0.40;0.40;;;;;;;17.56;39.57;101511.34;5100548;28;20137;-49
2023/03/05 04:40:57;;;;;;;0.30;0.30;;;;;;;17.56;39.41;101511.34;5097596;28;20047;-45
2023/03/05 04:43:23;;;;;;;0.30;0.30;;;;;;;17.55;39.23;101517.94;5115647;28;20708;-49
2023/03/05 04:45:48;;;;;;;0.40;0.40;;;;;;;17.55;39.33;101520.69;5115589;27;20045;-49
2023/03/05 04:48:15;;;;;;;0.40;0.40;;;;;;;17.56;39.60;101519.59;5115827;28;20051;-46
2023/03/05 04:50:41;;;;;;;0.40;0.40;;;;;;;17.55;39.40;101507.75;5115597;28;20074;-46
2023/03/05 04:53:07;;;;;;;0.40;0.40;;;;;;;17.55;39.48;101515.19;5115891;28;20480;-46
2023/03/05 04:55:32;;;;;;;0.30;0.30;;;;;;;17.55;39.48;101506.94;5097038;27;20057;-48
2023/03/05 04:57:58;;;;;;;0.30;0.30;;;;;;;17.55;39.46;101512.44;5105002;28;20484;-45
2023/03/05 05:00:24;;;;;;;0.30;0.30;;;;;;;17.56;39.44;101508.59;5095439;28;20043;-47
2023/03/05 05:02:50;;;;;;;0.30;0.30;;;;;;;17.56;39.31;101503.91;5094842;28;20062;-48
2023/03/05 05:05:18;;;;;;;0.35;0.35;;;;;;;17.55;39.46;101505.00;5088060;28;20611;-48
2023/03/05 05:07:44;;;;;;;0.40;0.40;;;;;;;17.56;39.41;101503.91;5097308;28;20082;-46
2023/03/05 05:10:11;;;;;;;0.30;0.30;;;;;;;17.55;39.32;101502.25;5115850;28;20047;-50
2023/03/05 05:12:37;;;;;;;0.40;0.40;;;;;;;17.55;39.43;101502.25;5097589;28;20575;-49
2023/03/05 05:15:04;;;;;;;0.30;0.30;;;;;;;17.55;39.44;101491.25;5115799;28;20542;-49
2023/03/05 05:17:31;;;;;;;0.30;0.30;;;;;;;17.56;39.42;101492.06;5116118;28;20137;-47
2023/03/05 05:19:58;;;;;;;0.30;0.30;;;;;;;17.55;39.60;101488.47;5116098;28;20498;-46
2023/03/05 05:22:27;;;;;;;0.22;0.22;;;;;;;17.56;39.42;101492.91;5097065;28;20043;-47
2023/03/05 05:24:52;;;;;;;0.35;0.35;;;;;;;17.55;39.49;101473.88;5097004;28;20100;-45
2023/03/05 05:27:18;;;;;;;0.30;0.30;;;;;;;17.56;39.21;101472.78;5115647;28;20055;-46
2023/03/05 05:29:48;;;;;;;0.40;0.40;;;;;;;17.55;39.61;101460.94;5115599;28;20406;-46
2023/03/05 05:32:16;;;;;;;0.30;0.30;;;;;;;17.56;39.20;101459.03;5115119;28;20039;-48
2023/03/05 05:34:41;;;;;;;0.30;0.30;;;;;;;17.55;39.51;101462.88;5115698;28;20068;-50
2023/03/05 05:37:07;;;;;;;0.30;0.30;;;;;;;17.55;39.66;101462.88;5115228;28;20414;-47
2023/03/05 05:39:34;;;;;;;0.40;0.40;;;;;;;17.56;39.60;101464.53;5115661;28;20439;-46
2023/03/05 05:41:59;;;;;;;0.30;0.30;;;;;;;17.54;39.44;101467.53;5114723;28;20047;-47
2023/03/05 05:44:25;;;;;;;0.40;0.40;;;;;;;17.54;39.41;101464.78;5115125;28;20047;-47
2023/03/05 05:46:51;;;;;;;0.30;0.30;;;;;;;17.55;39.36;101465.63;5114727;28;20549;-45
2023/03/05 05:49:17;;;;;;;0.35;0.35;;;;;;;17.56;39.59;101473.63;5115267;28;20039;-46
2023/03/05 05:51:42;;;;;;;0.40;0.40;;;;;;;17.55;39.25;101476.63;5115318;28;20043;-47
2023/03/05 05:54:11;;;;;;;0.40;0.40;;;;;;;17.56;39.51;101475.53;5115080;28;20074;-50
2023/03/05 05:56:37;;;;;;;0.40;0.40;;;;;;;17.54;39.54;101469.47;5087410;28;20067;-47
2023/03/05 05:59:03;;;;;;;0.30;0.30;;;;;;;17.55;39.30;101474.72;5076607;28;20051;-46
2023/03/05 06:01:30;;;;;;;0.40;0.40;;;;;;;17.55;39.38;101471.97;5094705;28;20539;-49
2023/03/05 06:03:56;;;;;;;0.40;0.40;;;;;;;17.55;39.30;101471.13;5094423;28;20047;-49
2023/03/05 06:06:23;;;;;;;0.40;0.40;;;;;;;17.55;39.46;101465.63;5075807;28;20054;-46
2023/03/05 06:08:49;;;;;;;0.40;0.40;;;;;;;17.56;39.68;101467.28;5075631;28;20062;-48
2023/03/05 06:11:16;;;;;;;0.40;0.40;;;;;;;17.54;39.58;101467.53;5094564;28;20539;-48
2023/03/05 06:13:45;;;;;;;0.40;0.40;;;;;;;17.55;39.48;101457.34;5094212;28;20407;-47
2023/03/05 06:16:12;;;;;;;0.40;0.40;;;;;;;17.55;39.46;101460.94;5094269;28;20051;-49
2023/03/05 06:18:38;;;;;;;0.30;0.30;;;;;;;17.55;39.43;101460.13;5094367;28;20061;-46
2023/03/05 06:21:06;;;;;;;0.30;0.30;;;;;;;17.54;39.53;101459.28;5094815;28;20044;-48
2023/03/05 06:23:32;;;;;;;0.40;0.40;;;;;;;17.55;39.27;101457.34;5075880;28;20048;-47
2023/03/05 06:25:59;;;;;;;0.40;0.40;;;;;;;17.54;39.59;101464.78;5083484;28;20114;-46
2023/03/05 06:28:25;;;;;;;0.30;0.30;;;;;;;17.55;39.54;101465.63;5096067;28;20167;-47
2023/03/05 06:30:59;;;;;;;0.30;0.30;;;;;;;17.56;39.41;101461.78;5096543;28;20517;-44
2023/03/05 06:33:24;;;;;;;0.40;0.40;;;;;;;17.54;39.51;101463.97;5114464;28;20250;-47
2023/03/05 06:35:50;;;;;;;0.30;0.30;;;;;;;17.55;39.65;101460.94;5114445;28;20282;-47
2023/03/05 06:38:16;;;;;;;0.40;0.40;;;;;;;17.55;39.30;101457.34;5114360;28;20047;-46
2023/03/05 06:40:41;;;;;;;0.40;0.40;;;;;;;17.55;39.70;101452.69;5114949;28;20047;-49
2023/03/05 06:43:07;;;;;;;0.40;0.40;;;;;;;17.54;39.45;101462.03;5114055;28;20050;-48
2023/03/05 06:45:33;;;;;;;0.35;0.35;;;;;;;17.54;39.57;101463.97;5114387;28;20039;-49
2023/03/05 06:47:58;;;;;;;0.40;0.40;;;;;;;17.53;39.60;101462.31;5114069;28;20095;-49
2023/03/05 06:50:24;;;;;;;0.40;0.40;;;;;;;17.54;39.53;101458.47;5113689;28;20043;-46
2023/03/05 06:52:50;;;;;;;0.30;0.30;;;;;;;17.55;39.58;101462.88;5114818;28;20051;-47
2023/03/05 06:55:17;;;;;;;0.30;0.30;;;;;;;17.55;39.48;101466.44;5114338;28;20092;-45
2023/03/05 06:57:42;;;;;;;0.30;0.30;;;;;;;17.55;39.41;101457.34;5113858;27;20047;-47
2023/03/05 07:00:09;;;;;;;0.30;0.30;;;;;;;17.55;39.40;101458.19;5114478;28;20104;-47
2023/03/05 07:02:36;;;;;;;0.30;0.30;;;;;;;17.55;39.44;101457.34;5114205;28;20092;-48
2023/03/05 07:05:02;;;;;;;0.30;0.30;;;;;;;17.55;39.67;101451.84;5096017;28;20144;-49
2023/03/05 07:07:28;;;;;;;0.22;0.22;;;;;;;17.54;39.46;101452.94;5113711;28;20075;-48
2023/03/05 07:09:54;;;;;;;0.30;0.30;;;;;;;17.54;39.48;101445.50;5116215;27;20043;-46
2023/03/05 07:12:19;;;;;;;0.30;0.30;;;;;;;17.54;39.46;101447.44;5117881;28;20051;-49
2023/03/05 07:14:45;;;;;;;0.30;0.30;;;;;;;17.55;39.47;101446.34;5117770;28;20442;-46
2023/03/05 07:17:14;;;;;;;0.30;0.30;;;;;;;17.54;39.50;101451.03;5117465;28;20053;-46
2023/03/05 07:19:39;;;;;;;0.30;0.30;;;;;;;17.54;39.42;101444.69;5117841;28;20111;-47
2023/03/05 07:22:06;;;;;;;0.32;0.32;;;;;;;17.54;39.62;101437.25;5117611;28;20051;-48
2023/03/05 07:24:31;;;;;;;0.30;0.30;;;;;;;17.54;39.42;101441.94;5117442;28;20081;-48
2023/03/05 07:26:57;;;;;;;0.30;0.30;;;;;;;17.54;39.52;101439.19;5116749;28;20044;-48
2023/03/05 07:29:24;;;;;;;0.40;0.40;;;;;;;17.54;39.29;101444.69;5098914;28;20043;-46
2023/03/05 07:31:50;;;;;;;0.40;0.40;;;;;;;17.54;39.57;101439.19;5098485;28;20292;-48
2023/03/05 07:34:16;;;;;;;0.40;0.40;;;;;;;17.55;39.34;101435.31;5117997;28;20232;-47
2023/03/05 07:36:41;;;;;;;0.32;0.32;;;;;;;17.55;39.40;101438.09;5117253;28;20043;-47
2023/03/05 07:39:08;;;;;;;0.40;0.40;;;;;;;17.54;39.45;101437.25;5117259;28;20104;-46
2023/03/05 07:41:34;;;;;;;0.30;0.30;;;;;;;17.54;39.49;101436.44;5117430;28;20050;-49
2023/03/05 07:44:00;;;;;;;0.30;0.30;;;;;;;17.54;39.49;101428.16;5116840;28;20047;-46
2023/03/05 07:46:28;;;;;;;0.30;0.30;;;;;;;17.54;39.36;101433.66;5116345;28;20055;-47
2023/03/05 07:48:54;;;;;;;0.40;0.40;;;;;;;17.55;39.54;101427.06;5098529;28;20054;-49
2023/03/05 07:51:21;;;;;;;0.40;0.40;;;;;;;17.54;39.28;101423.47;5099848;28;20047;-46
2023/03/05 07:53:48;;;;;;;0.40;0.40;;;;;;;17.54;39.50;101425.41;5117205;28;20096;-46
2023/03/05 07:56:22;;;;;;;0.30;0.30;;;;;;;17.55;39.51;101424.31;5093709;28;20043;-46
2023/03/05 07:58:48;;;;;;;0.40;0.40;;;;;;;17.53;39.37;101421.81;5096382;28;20078;-46
2023/03/05 08:01:13;;;;;;;0.30;0.30;;;;;;;17.54;39.48;101420.72;5096593;28;20090;-47
2023/03/05 08:03:40;;;;;;;0.30;0.30;;;;;;;17.53;39.43;101419.06;5095524;28;20119;-46
2023/03/05 08:06:06;;;;;;;0.35;0.35;;;;;;;17.54;39.56;101420.72;5077631;28;20433;-45
2023/03/05 08:08:32;;;;;;;0.30;0.30;;;;;;;17.54;39.42;101414.41;5077379;28;20063;-45
2023/03/05 08:11:03;;;;;;;0.30;0.30;;;;;;;17.54;39.43;101417.97;5096018;28;20108;-45
2023/03/05 08:13:29;;;;;;;0.40;0.40;;;;;;;17.53;39.53;101421.00;5096201;28;20079;-45
2023/03/05 08:15:55;;;;;;;0.30;0.30;;;;;;;17.54;39.41;101412.47;5078032;28;20100;-47
2023/03/05 08:18:21;;;;;;;0.30;0.30;;;;;;;17.54;39.32;101417.16;5096220;28;20058;-46
2023/03/05 08:20:46;;;;;;;0.30;0.30;;;;;;;17.54;39.35;101414.41;5095948;28;20059;-47
2023/03/05 08:23:12;;;;;;;0.30;0.30;;;;;;;17.54;39.27;101411.63;5096078;28;20043;-46
2023/03/05 08:25:38;;;;;;;0.30;0.30;;;;;;;17.54;39.59;101411.63;5095824;28;20051;-45
2023/03/05 08:28:03;;;;;;;0.30;0.30;;;;;;;17.54;39.44;101406.97;5096105;28;20492;-45
2023/03/05 08:30:29;;;;;;;0.30;0.30;;;;;;;17.53;39.55;101397.03;5113029;28;20050;-45
2023/03/05 08:32:55;;;;;;;0.30;0.30;;;;;;;17.53;39.44;101394.28;5115955;28;20744;-44
2023/03/05 08:35:22;;;;;;;0.30;0.30;;;;;;;17.54;39.57;101384.09;5116134;28;20043;-46
2023/03/05 08:37:47;;;;;;;0.30;0.30;;;;;;;17.53;39.36;101386.03;5097591;28;20527;-45
2023/03/05 08:40:14;;;;;;;0.30;0.30;;;;;;;17.54;39.60;101389.59;5097672;28;20043;-46
2023/03/05 08:42:39;;;;;;;0.38;0.38;;;;;;;17.53;39.64;101386.03;5097913;28;20054;-45
2023/03/05 08:45:06;;;;;;;0.40;0.40;;;;;;;17.54;39.49;101389.59;5115830;28;20039;-45
2023/03/05 08:47:32;;;;;;;0.40;0.40;;;;;;;17.53;39.47;101387.94;5114309;28;20047;-45
2023/03/05 08:49:57;;;;;;;0.30;0.30;;;;;;;17.53;39.58;101379.69;5116014;28;20086;-46
2023/03/05 08:52:23;;;;;;;0.30;0.30;;;;;;;17.54;39.43;101386.84;5115716;28;20047;-45
2023/03/05 08:54:49;;;;;;;0.30;0.30;;;;;;;17.55;39.58;101385.75;5097215;28;20442;-46
2023/03/05 08:57:15;;;;;;;0.30;0.30;;;;;;;17.53;39.54;101382.44;5080612;28;20043;-46
2023/03/05 08:59:40;;;;;;;0.30;0.30;;;;;;;17.54;39.53;101389.59;5115949;28;20051;-46
2023/03/05 09:02:06;;;;;;;0.40;0.40;;;;;;;17.53;39.49;101377.75;5115244;28;20112;-46
2023/03/05 09:04:32;;;;;;;0.30;0.30;;;;;;;17.52;39.24;101376.06;5115582;28;20072;-47
2023/03/05 09:06:57;;;;;;;0.35;0.35;;;;;;;17.53;39.45;101371.44;5115263;28;20043;-48
2023/03/05 09:09:23;;;;;;;0.30;0.30;;;;;;;17.53;39.32;101380.53;5116036;28;20272;-47
2023/03/05 09:11:50;;;;;;;0.30;0.30;;;;;;;17.53;39.54;101372.25;5115506;28;20615;-46
2023/03/05 09:14:16;;;;;;;0.30;0.30;;;;;;;17.53;39.42;101371.44;5115383;28;20050;-47
2023/03/05 09:16:42;;;;;;;0.30;0.30;;;;;;;17.54;39.50;101373.09;5097382;28;20411;-47
2023/03/05 09:19:09;;;;;;;0.30;0.30;;;;;;;17.53;39.45;101368.69;5097616;28;20393;-45
2023/03/05 09:21:35;;;;;;;0.30;0.30;;;;;;;17.53;39.49;101352.16;5115487;28;20475;-47
2023/03/05 09:24:01;;;;;;;0.40;0.40;;;;;;;17.53;39.64;101361.25;5097344;28;20062;-48
2023/03/05 09:26:26;;;;;;;0.35;0.35;;;;;;;17.52;39.41;101359.56;5083528;28;20046;-49
2023/03/05 09:28:52;;;;;;;0.40;0.40;;;;;;;17.53;39.54;101358.50;5115799;28;20051;-47
2023/03/05 09:31:18;;;;;;;0.40;0.40;;;;;;;17.53;39.43;101360.41;5114560;27;20104;-48
2023/03/05 09:33:44;;;;;;;0.30;0.30;;;;;;;17.52;39.43;101356.81;5113143;28;20296;-45
2023/03/05 09:36:17;;;;;;;0.30;0.30;;;;;;;17.53;39.46;101352.97;5081310;28;20039;-49
2023/03/05 09:38:43;;;;;;;0.40;0.40;;;;;;;17.53;39.72;101349.41;5076678;28;20484;-47
2023/03/05 09:41:40;;;;;;;0.40;0.40;;;;;;;17.53;39.46;101352.16;5095321;28;20048;-47
2023/03/05 09:44:34;;;;;;;0.20;0.20;;;;;;;17.53;39.45;101344.72;5065690;28;20052;-48
2023/03/05 09:50:05;;;;;;;0.40;0.40;;;;;;;17.52;39.45;101348.53;5173363;27;20545;-46
2023/03/05 09:52:54;;;;;;;0.30;0.30;;;;;;;17.53;39.37;101344.72;5136953;27;20450;-45
2023/03/05 09:55:28;;;;;;;0.38;0.38;;;;;;;17.53;39.54;101355.72;5112970;27;20039;-48
2023/03/05 09:57:57;;;;;;;0.40;0.40;;;;;;;17.52;39.41;101347.72;5094881;27;20197;-46
2023/03/05 10:00:32;;;;;;;0.30;0.30;;;;;;;17.52;39.46;101344.97;5093306;28;20048;-46
2023/03/05 10:03:00;;;;;;;0.30;0.30;;;;;;;17.53;39.50;101336.47;5092768;28;20047;-48
2023/03/05 10:05:56;;;;;;;0.30;0.30;;;;;;;17.53;39.63;101333.69;5092669;28;20480;-48
2023/03/05 10:08:27;;;;;;;0.30;0.30;;;;;;;17.53;39.57;101335.63;5096860;28;20047;-48
2023/03/05 10:10:53;;;;;;;0.40;0.40;;;;;;;17.53;39.58;101341.97;5092729;28;20085;-45
2023/03/05 10:13:25;;;;;;;0.40;0.40;;;;;;;17.52;39.42;101331.19;5092474;28;20054;-46
2023/03/05 10:16:24;;;;;;;0.40;0.40;;;;;;;17.53;39.52;101336.47;5126149;27;20087;-46
2023/03/05 10:18:56;;;;;;;0.30;0.30;;;;;;;17.52;39.43;101331.19;5118126;27;20050;-45
2023/03/05 10:21:37;;;;;;;0.40;0.40;;;;;;;17.52;39.46;101334.78;5113691;27;20046;-45
2023/03/05 10:24:24;;;;;;;0.40;0.40;;;;;;;17.53;39.41;101321.88;5131132;27;20391;-49
2023/03/05 10:26:58;;;;;;;0.30;0.30;;;;;;;17.52;39.52;101318.25;5095997;28;20039;-48
2023/03/05 10:29:54;;;;;;;0.40;0.40;;;;;;;17.52;39.51;101315.50;5092088;28;20546;-49
2023/03/05 10:35:15;;;;;;;0.30;0.30;;;;;;;17.52;39.27;101303.66;5147648;27;20193;-45
2023/03/05 10:37:53;;;;;;;0.40;0.40;;;;;;;17.53;39.35;101302.59;5131304;27;20061;-48
2023/03/05 10:40:45;;;;;;;0.40;0.40;;;;;;;17.51;39.59;101294.56;5131796;27;20098;-46
2023/03/05 10:43:23;;;;;;;0.40;0.40;;;;;;;17.51;39.41;101300.06;5116679;27;20051;-48
2023/03/05 10:45:51;;;;;;;0.30;0.30;;;;;;;17.51;39.62;101294.56;5131349;27;20132;-50
2023/03/05 10:48:46;;;;;;;0.40;0.40;;;;;;;17.52;39.56;101289.88;5131697;27;20137;-49
2023/03/05 10:51:18;;;;;;;0.40;0.40;;;;;;;17.52;39.28;101290.72;5136467;27;20050;-46
2023/03/05 10:53:54;;;;;;;0.40;0.40;;;;;;;17.53;39.55;101291.56;5132774;27;20229;-48
2023/03/05 10:56:22;;;;;;;0.32;0.32;;;;;;;17.52;39.51;101282.44;5117179;27;20043;-46
2023/03/05 10:58:48;;;;;;;0.30;0.30;;;;;;;17.52;39.60;101289.88;5133446;27;20119;-45
2023/03/05 11:03:59;;;;;;;0.40;0.40;;;;;;;17.52;39.35;101278.88;5174166;27;20120;-49
2023/03/05 11:09:31;;;;;;;0.30;0.30;;;;;;;17.52;39.35;101274.19;5173376;27;20124;-46
2023/03/05 11:12:14;;;;;;;0.30;0.30;;;;;;;17.51;39.44;101269.78;5121211;27;20046;-48
2023/03/05 11:14:42;;;;;;;0.40;0.40;;;;;;;17.51;39.41;101268.94;5134847;27;20074;-47
2023/03/05 11:17:26;;;;;;;;;;;;;;;17.52;39.49;101268.69;5134180;27;20047;-48
2023/03/05 11:19:52;;;;;;;0.40;0.40;;;;;;;17.51;39.32;101257.94;5133865;27;19958;-48
2023/03/05 11:22:20;;;;;;;0.40;0.40;;;;;;;17.52;39.66;101265.94;5152360;27;20069;-45
2023/03/05 11:25:04;;;;;;;0.30;0.30;;;;;;;17.52;39.69;101254.09;5127650;27;20054;-49
2023/03/05 11:27:35;;;;;;;0.40;0.40;;;;;;;17.52;39.37;101252.16;5092915;28;20040;-48
2023/03/05 11:30:01;;;;;;;0.40;0.40;;;;;;;17.51;39.33;101256.00;5092831;28;20047;-48
2023/03/05 11:32:28;;;;;;;0.40;0.40;;;;;;;17.52;39.59;101248.56;5110334;27;20039;-48
2023/03/05 11:34:55;;;;;;;0.30;0.30;;;;;;;17.51;39.38;101246.94;5103702;27;20050;-45
2023/03/05 11:37:30;;;;;;;0.30;0.30;;;;;;;17.51;39.58;101242.25;5116501;27;20055;-45